CheckWX is a tool to help pilots better visualize weather data.  It is not intended as a substitute for an official pre-flight weather briefing.

07:56:11 UTC

KCXO METAR
Conroe-North Houston Regional Airport
Houston, Texas, USA
Current

1 hour ago

KCXO 060653Z AUTO 00000KT 7SM OVC019 14/13 A3001 RMK AO2 SLP160 T01390133
Observed
Dec-6 @ 06:53 UTC
Visibility
7 SM
Flight Rules
MVFR
Cloud Levels
  • Overcast at 1,900' AGL
Temperature
14°C / 57°F
Dewpoint
13°C / 55°F
Humidity
94%
Altimeter
30.01" Hg
Pressure
1016.22 hPa
Previous

2 hours ago

KCXO 060553Z AUTO 00000KT 10SM OVC021 16/14 A3002 RMK AO2 SLP162 T01560139 10189 20144 402500072 56002
Observed
Dec-6 @ 05:53 UTC
Visibility
10 SM
Flight Rules
MVFR
Cloud Levels
  • Overcast at 2,100' AGL
Temperature
16°C / 61°F
Dewpoint
14°C / 57°F
Humidity
88%
Altimeter
30.02" Hg
Pressure
1016.62 hPa
Previous

2 hours ago

KCXO 060534Z AUTO 16003KT 10SM BKN021 15/14 A3002 RMK AO2 T01500139
Observed
Dec-6 @ 05:34 UTC
Wind
  • 160° at 3 KTS
Visibility
10 SM
Flight Rules
MVFR
Cloud Levels
  • Broken at 2,100' AGL
Temperature
15°C / 59°F
Dewpoint
14°C / 57°F
Humidity
94%
Altimeter
30.02" Hg
Pressure
1016.62 hPa